Time;durP1;ratioP1;P1;durP2;ratioP2;P2;SDS_P1;SDS_P2;PMS_P1;PMS_P2;Temp;Humidity;BMP_temperature;BMP_pressure;BME280_temperature;BME280_humidity;BME280_pressure;Samples;Min_cycle;Max_cycle;Signal;HPM_P1;HPM_P2
2024/02/09 00:00:36;;;;;;;4.07;2.10;;;;;;;;;;5102655;28;20414;-81
2024/02/09 00:03:02;;;;;;;5.10;2.10;;;;;;;;;;5089821;28;20421;-79
2024/02/09 00:05:28;;;;;;;5.20;3.03;;;;;;;;;;5102709;28;20834;-79
2024/02/09 00:07:56;;;;;;;4.43;2.17;;;;;;;;;;5103290;28;20501;-79
2024/02/09 00:10:22;;;;;;;2.80;1.70;;;;;;;;;;5103157;28;20414;-78
2024/02/09 00:12:48;;;;;;;3.57;2.10;;;;;;;;;;5102374;28;20834;-79
2024/02/09 00:15:18;;;;;;;3.20;1.80;;;;;;;;;;5105359;28;20442;-79
2024/02/09 00:17:44;;;;;;;6.60;2.60;;;;;;;;;;5087794;28;20410;-78
2024/02/09 00:20:10;;;;;;;4.17;2.77;;;;;;;;;;5100302;28;20424;-81
2024/02/09 00:22:37;;;;;;;3.53;2.07;;;;;;;;;;5104288;28;20432;-79
2024/02/09 00:25:10;;;;;;;4.60;2.57;;;;;;;;;;5103994;28;20772;-80
2024/02/09 00:27:36;;;;;;;8.07;6.60;;;;;;;;;;5102279;28;20509;-79
2024/02/09 00:30:05;;;;;;;5.53;3.20;;;;;;;;;;5093640;28;20422;-79
2024/02/09 00:32:30;;;;;;;5.50;3.00;;;;;;;;;;5102750;28;20492;-78
2024/02/09 00:34:56;;;;;;;8.07;3.40;;;;;;;;;;5103131;28;20868;-79
2024/02/09 00:37:23;;;;;;;9.17;4.07;;;;;;;;;;5091191;28;20418;-80
2024/02/09 00:39:49;;;;;;;4.23;3.17;;;;;;;;;;5102081;28;20443;-81
2024/02/09 00:42:15;;;;;;;6.33;3.90;;;;;;;;;;5089748;28;20943;-78
2024/02/09 00:44:43;;;;;;;4.70;2.63;;;;;;;;;;5087506;28;20412;-78
2024/02/09 00:47:09;;;;;;;6.83;4.50;;;;;;;;;;5087077;28;20825;-78
2024/02/09 00:49:35;;;;;;;6.13;3.43;;;;;;;;;;5087982;28;20418;-79
2024/02/09 00:52:01;;;;;;;7.27;4.77;;;;;;;;;;5088327;28;20492;-77
2024/02/09 00:54:27;;;;;;;7.07;4.03;;;;;;;;;;5087393;28;20408;-77
2024/02/09 00:56:53;;;;;;;6.57;4.40;;;;;;;;;;5077531;28;20421;-78
2024/02/09 00:59:20;;;;;;;4.73;4.23;;;;;;;;;;5088382;28;20404;-79
2024/02/09 01:01:46;;;;;;;5.80;4.00;;;;;;;;;;5087853;28;20446;-79
2024/02/09 01:04:12;;;;;;;6.10;4.50;;;;;;;;;;5074628;28;20524;-78
2024/02/09 01:06:39;;;;;;;7.50;4.43;;;;;;;;;;5085865;28;20421;-78
2024/02/09 01:09:06;;;;;;;6.77;5.10;;;;;;;;;;5087915;28;20414;-79
2024/02/09 01:11:32;;;;;;;6.10;3.60;;;;;;;;;;5087298;28;20472;-79
2024/02/09 02:44:46;;;;;;;5.77;2.67;;;;;;;;;;5123801;27;20500;-77
2024/02/09 02:47:12;;;;;;;6.00;2.20;;;;;;;;;;5125937;27;20761;-78
2024/02/09 03:06:06;;;;;;;3.83;2.47;;;;;;;;;;5126868;27;20497;-78
2024/02/09 03:08:32;;;;;;;2.00;1.40;;;;;;;;;;5125299;27;20418;-79
2024/02/09 03:11:00;;;;;;;4.07;2.07;;;;;;;;;;5124523;27;20423;-82
2024/02/09 03:13:26;;;;;;;2.90;1.13;;;;;;;;;;5124509;27;20511;-81
2024/02/09 03:15:52;;;;;;;2.50;1.93;;;;;;;;;;5125362;27;20433;-75
2024/02/09 03:18:21;;;;;;;4.83;2.00;;;;;;;;;;5125798;27;20412;-79
2024/02/09 03:20:47;;;;;;;2.57;1.90;;;;;;;;;;5105969;27;20418;-76
2024/02/09 03:23:17;;;;;;;2.50;1.60;;;;;;;;;;5136088;27;20967;-77
2024/02/09 03:25:43;;;;;;;2.60;1.90;;;;;;;;;;5117595;27;20449;-81
2024/02/09 03:28:08;;;;;;;3.40;2.37;;;;;;;;;;5136053;27;20405;-79
2024/02/09 03:30:34;;;;;;;3.60;1.70;;;;;;;;;;5135647;27;20416;-76
2024/02/09 03:33:00;;;;;;;4.53;2.60;;;;;;;;;;5135822;27;20469;-80
2024/02/09 03:35:31;;;;;;;3.50;2.33;;;;;;;;;;5135841;27;20399;-79
2024/02/09 03:37:57;;;;;;;2.50;1.50;;;;;;;;;;5135840;27;20418;-75
2024/02/09 03:40:23;;;;;;;1.70;1.43;;;;;;;;;;5117128;27;20415;-76
2024/02/09 03:42:49;;;;;;;1.97;1.37;;;;;;;;;;5135298;27;20460;-76
2024/02/09 03:45:15;;;;;;;3.03;2.23;;;;;;;;;;5135681;27;20414;-82
2024/02/09 03:47:41;;;;;;;3.10;1.67;;;;;;;;;;5135338;27;20888;-78
2024/02/09 03:50:07;;;;;;;2.00;1.73;;;;;;;;;;5135522;27;20409;-79
2024/02/09 03:52:33;;;;;;;3.50;2.30;;;;;;;;;;5135350;27;20473;-80
2024/02/09 03:54:59;;;;;;;4.97;2.17;;;;;;;;;;5135164;27;20759;-79
2024/02/09 03:57:26;;;;;;;2.80;2.20;;;;;;;;;;5135270;27;20412;-80
2024/02/09 03:59:52;;;;;;;3.47;1.60;;;;;;;;;;5116953;27;20416;-80
2024/02/09 04:02:19;;;;;;;2.43;1.77;;;;;;;;;;5134959;27;20415;-79
2024/02/09 04:04:47;;;;;;;3.30;1.97;;;;;;;;;;5135189;27;20505;-77
2024/02/09 04:07:13;;;;;;;2.73;1.70;;;;;;;;;;5135231;27;20405;-79
2024/02/09 04:09:39;;;;;;;2.77;2.00;;;;;;;;;;5135234;27;20900;-80
2024/02/09 04:12:05;;;;;;;2.87;1.73;;;;;;;;;;5135067;27;20564;-78
2024/02/09 04:14:32;;;;;;;5.03;2.00;;;;;;;;;;5135102;27;20406;-78
2024/02/09 04:16:58;;;;;;;3.07;2.00;;;;;;;;;;5134734;27;20906;-77
2024/02/09 04:19:25;;;;;;;3.20;2.10;;;;;;;;;;5135060;27;20434;-82
2024/02/09 04:21:51;;;;;;;2.00;1.23;;;;;;;;;;5135014;27;20417;-77
2024/02/09 04:24:23;;;;;;;4.23;2.67;;;;;;;;;;5134826;27;20404;-81
2024/02/09 04:26:49;;;;;;;1.87;1.13;;;;;;;;;;5134833;27;20924;-78
2024/02/09 04:29:15;;;;;;;3.43;1.90;;;;;;;;;;5134782;27;20408;-77
2024/02/09 04:31:45;;;;;;;3.53;1.97;;;;;;;;;;5134350;27;20467;-80
2024/02/09 04:34:13;;;;;;;3.00;2.47;;;;;;;;;;5116193;27;20413;-81
2024/02/09 04:36:43;;;;;;;3.37;2.30;;;;;;;;;;5134794;27;20416;-78
2024/02/09 04:39:16;;;;;;;2.93;1.60;;;;;;;;;;5134671;27;20402;-80
2024/02/09 04:41:43;;;;;;;3.20;1.80;;;;;;;;;;5134588;27;20482;-84
2024/02/09 04:44:09;;;;;;;1.97;1.60;;;;;;;;;;5116349;27;20755;-77
2024/02/09 04:46:35;;;;;;;3.90;2.70;;;;;;;;;;5134164;27;20402;-83
2024/02/09 04:49:02;;;;;;;3.33;2.17;;;;;;;;;;5134692;27;20900;-80
2024/02/09 04:51:33;;;;;;;3.30;1.67;;;;;;;;;;5134632;27;20444;-82
2024/02/09 04:53:59;;;;;;;3.20;2.20;;;;;;;;;;5134562;27;20966;-78
2024/02/09 04:56:26;;;;;;;3.73;2.20;;;;;;;;;;5115990;27;20414;-80
2024/02/09 04:58:52;;;;;;;2.50;2.20;;;;;;;;;;5134512;27;20416;-78
2024/02/09 05:01:27;;;;;;;3.47;2.80;;;;;;;;;;5134425;27;20413;-78
2024/02/09 05:03:57;;;;;;;1.97;1.50;;;;;;;;;;5137443;27;20415;-78
2024/02/09 05:06:23;;;;;;;3.67;1.20;;;;;;;;;;5134775;27;20400;-85
2024/02/09 05:08:49;;;;;;;4.07;2.30;;;;;;;;;;5116494;27;20428;-80
2024/02/09 05:11:15;;;;;;;3.77;1.70;;;;;;;;;;5134325;27;20924;-85
2024/02/09 05:13:41;;;;;;;2.50;2.27;;;;;;;;;;5134694;27;20419;-88
2024/02/09 05:16:09;;;;;;;3.07;2.30;;;;;;;;;;5134222;27;20396;-86
2024/02/09 05:18:35;;;;;;;3.37;1.53;;;;;;;;;;5133996;27;20402;-79
2024/02/09 05:21:00;;;;;;;2.10;0.90;;;;;;;;;;5134401;28;20900;-86
2024/02/09 05:23:29;;;;;;;2.50;2.30;;;;;;;;;;5134316;28;20409;-79
2024/02/09 05:25:55;;;;;;;2.87;1.43;;;;;;;;;;5134627;28;20409;-84
2024/02/09 05:28:23;;;;;;;3.17;1.80;;;;;;;;;;5134145;28;20506;-78
2024/02/09 05:30:49;;;;;;;2.70;1.93;;;;;;;;;;5133413;28;20405;-78
2024/02/09 05:33:16;;;;;;;4.17;1.83;;;;;;;;;;5119493;28;20795;-81
2024/02/09 05:35:42;;;;;;;2.17;1.20;;;;;;;;;;5118102;28;20413;-80
2024/02/09 05:38:08;;;;;;;2.83;2.13;;;;;;;;;;5113181;28;20420;-80
2024/02/09 05:40:34;;;;;;;3.73;2.40;;;;;;;;;;5117258;28;20414;-78
2024/02/09 05:43:00;;;;;;;4.10;2.10;;;;;;;;;;5090281;28;20466;-80
2024/02/09 05:45:26;;;;;;;2.97;1.90;;;;;;;;;;5088131;28;20432;-80
2024/02/09 05:47:52;;;;;;;2.60;1.50;;;;;;;;;;5092749;28;20418;-79
2024/02/09 05:50:21;;;;;;;3.10;2.70;;;;;;;;;;5091453;28;20411;-79
2024/02/09 05:52:50;;;;;;;2.50;1.90;;;;;;;;;;5088258;28;20464;-80
2024/02/09 05:55:17;;;;;;;3.97;1.87;;;;;;;;;;5088387;28;20445;-79
2024/02/09 05:57:43;;;;;;;1.40;0.80;;;;;;;;;;5088504;28;20844;-79
2024/02/09 06:00:14;;;;;;;1.80;1.50;;;;;;;;;;5085228;28;20491;-80
2024/02/09 06:02:43;;;;;;;3.90;1.53;;;;;;;;;;5092734;28;20413;-80
2024/02/09 06:05:12;;;;;;;1.77;1.17;;;;;;;;;;5092262;28;20735;-82
2024/02/09 06:07:38;;;;;;;3.33;2.13;;;;;;;;;;5087301;28;20973;-79
2024/02/09 06:10:04;;;;;;;2.03;1.50;;;;;;;;;;5092180;28;20470;-79
2024/02/09 06:12:32;;;;;;;2.97;2.10;;;;;;;;;;5090164;28;20485;-79
2024/02/09 06:14:59;;;;;;;2.93;2.07;;;;;;;;;;5092204;28;20414;-78
2024/02/09 06:17:26;;;;;;;4.70;2.30;;;;;;;;;;5092118;28;20407;-81
2024/02/09 06:19:52;;;;;;;2.47;1.33;;;;;;;;;;5094935;28;20448;-80
2024/02/09 06:22:18;;;;;;;2.03;1.00;;;;;;;;;;5096317;28;20421;-80
2024/02/09 06:24:43;;;;;;;2.77;1.60;;;;;;;;;;5095077;28;20417;-81
2024/02/09 06:27:11;;;;;;;1.90;1.60;;;;;;;;;;5096231;28;20439;-84
2024/02/09 06:29:38;;;;;;;3.47;1.90;;;;;;;;;;5096263;28;20754;-77
2024/02/09 06:32:04;;;;;;;2.23;1.30;;;;;;;;;;5095718;28;20478;-79
2024/02/09 06:34:30;;;;;;;4.63;1.73;;;;;;;;;;5096126;28;20494;-80
2024/02/09 06:36:56;;;;;;;2.80;1.73;;;;;;;;;;5096039;28;20511;-82
2024/02/09 06:39:23;;;;;;;1.70;0.83;;;;;;;;;;5095955;28;20814;-80
2024/02/09 06:41:49;;;;;;;3.40;1.77;;;;;;;;;;5114601;27;20472;-78
2024/02/09 06:44:15;;;;;;;5.03;2.30;;;;;;;;;;5136803;27;20417;-77
2024/02/09 06:46:41;;;;;;;2.93;1.70;;;;;;;;;;5136454;27;20403;-80
2024/02/09 06:49:07;;;;;;;3.17;1.40;;;;;;;;;;5136708;27;20905;-79
2024/02/09 06:51:34;;;;;;;1.70;1.23;;;;;;;;;;5136603;27;20455;-79
2024/02/09 06:54:00;;;;;;;2.40;1.50;;;;;;;;;;5136607;27;20442;-77
2024/02/09 06:56:26;;;;;;;1.90;1.20;;;;;;;;;;5136544;27;20893;-78
2024/02/09 06:58:53;;;;;;;2.03;1.40;;;;;;;;;;5136495;27;20953;-78
2024/02/09 07:01:19;;;;;;;2.87;1.87;;;;;;;;;;5136207;27;20874;-78
2024/02/09 07:03:45;;;;;;;3.17;2.10;;;;;;;;;;5136322;27;20408;-80
2024/02/09 07:06:11;;;;;;;2.37;0.87;;;;;;;;;;5136401;27;20417;-79
2024/02/09 07:08:40;;;;;;;3.43;1.53;;;;;;;;;;5136164;27;20807;-79
2024/02/09 07:11:12;;;;;;;3.10;2.30;;;;;;;;;;5136171;27;20423;-79
2024/02/09 07:13:39;;;;;;;1.70;0.93;;;;;;;;;;5117725;27;20421;-78
2024/02/09 07:16:05;;;;;;;2.80;1.80;;;;;;;;;;5135824;27;20766;-79
2024/02/09 07:18:33;;;;;;;1.97;1.63;;;;;;;;;;5136123;27;20413;-79
2024/02/09 07:20:59;;;;;;;3.00;1.27;;;;;;;;;;5136220;27;20411;-79
2024/02/09 07:23:28;;;;;;;1.60;1.27;;;;;;;;;;5136157;27;20457;-80
2024/02/09 07:25:54;;;;;;;2.07;1.47;;;;;;;;;;5135802;27;20404;-78
2024/02/09 07:28:23;;;;;;;1.83;1.00;;;;;;;;;;5135444;27;20768;-77
2024/02/09 07:30:50;;;;;;;2.20;1.33;;;;;;;;;;5134894;27;20398;-78
2024/02/09 07:33:16;;;;;;;3.43;1.43;;;;;;;;;;5135562;27;20948;-78
2024/02/09 07:35:46;;;;;;;2.53;1.67;;;;;;;;;;5135849;27;20729;-77
2024/02/09 07:38:12;;;;;;;1.73;1.27;;;;;;;;;;5135893;27;20431;-78
2024/02/09 07:40:38;;;;;;;3.30;2.00;;;;;;;;;;5135688;27;20985;-78
2024/02/09 07:43:04;;;;;;;2.40;1.43;;;;;;;;;;5135485;27;20487;-77
2024/02/09 07:45:31;;;;;;;2.73;1.73;;;;;;;;;;5135301;27;20425;-77
2024/02/09 07:48:06;;;;;;;3.13;1.63;;;;;;;;;;5117425;27;20428;-77
2024/02/09 07:50:34;;;;;;;1.80;1.50;;;;;;;;;;5117454;27;20501;-77
2024/02/09 07:53:01;;;;;;;2.23;1.83;;;;;;;;;;5135752;27;20956;-78
2024/02/09 07:55:27;;;;;;;2.20;1.60;;;;;;;;;;5135882;27;20808;-78
2024/02/09 07:57:52;;;;;;;3.93;2.00;;;;;;;;;;5116317;27;20457;-77
2024/02/09 08:00:20;;;;;;;2.90;1.33;;;;;;;;;;5135483;27;20400;-77
2024/02/09 08:02:46;;;;;;;1.97;1.60;;;;;;;;;;5135631;27;20756;-76
2024/02/09 08:05:17;;;;;;;2.70;1.90;;;;;;;;;;5117228;27;20784;-76
2024/02/09 08:07:45;;;;;;;2.80;1.70;;;;;;;;;;5135743;27;20765;-75
2024/02/09 08:10:11;;;;;;;2.17;1.60;;;;;;;;;;5135664;27;20874;-77
2024/02/09 08:12:38;;;;;;;3.50;1.63;;;;;;;;;;5135316;27;20468;-77
2024/02/09 08:15:06;;;;;;;2.70;1.87;;;;;;;;;;5135086;27;20396;-76
2024/02/09 08:17:32;;;;;;;2.57;1.80;;;;;;;;;;5135533;27;20422;-77
2024/02/09 08:20:00;;;;;;;4.13;1.53;;;;;;;;;;5135414;27;20403;-77
2024/02/09 08:22:32;;;;;;;2.53;2.03;;;;;;;;;;5135479;27;20411;-77
2024/02/09 08:25:01;;;;;;;1.90;1.50;;;;;;;;;;5135494;27;20493;-75
2024/02/09 08:27:27;;;;;;;2.70;1.70;;;;;;;;;;5135366;27;20413;-78
2024/02/09 08:29:56;;;;;;;2.43;1.53;;;;;;;;;;5134773;27;20467;-77
2024/02/09 08:32:27;;;;;;;3.43;1.87;;;;;;;;;;5134659;27;20468;-78
2024/02/09 08:34:57;;;;;;;1.70;1.20;;;;;;;;;;5134726;27;20792;-77
2024/02/09 08:37:25;;;;;;;2.73;1.30;;;;;;;;;;5133472;27;20495;-78
2024/02/09 08:39:51;;;;;;;2.30;1.30;;;;;;;;;;5134550;27;20445;-77
2024/02/09 08:42:17;;;;;;;2.27;1.50;;;;;;;;;;5133515;27;20472;-77
2024/02/09 08:44:43;;;;;;;2.50;2.00;;;;;;;;;;5134083;27;20465;-75
2024/02/09 08:47:13;;;;;;;2.30;1.30;;;;;;;;;;5134411;27;20872;-76
2024/02/09 08:49:39;;;;;;;3.40;1.90;;;;;;;;;;5134428;27;20842;-78
2024/02/09 08:52:05;;;;;;;2.40;2.03;;;;;;;;;;5134344;27;20463;-78
2024/02/09 08:54:32;;;;;;;4.00;2.38;;;;;;;;;;5133279;27;20413;-78
2024/02/09 08:56:59;;;;;;;3.07;1.83;;;;;;;;;;5134395;27;20543;-79
2024/02/09 08:59:25;;;;;;;2.97;2.10;;;;;;;;;;5134057;27;20414;-77
2024/02/09 09:01:51;;;;;;;2.70;1.80;;;;;;;;;;5134648;27;20401;-80
2024/02/09 09:04:17;;;;;;;2.87;1.73;;;;;;;;;;5134442;27;20425;-78
2024/02/09 09:06:43;;;;;;;3.10;2.03;;;;;;;;;;5134158;27;20408;-78
2024/02/09 09:09:11;;;;;;;1.73;0.93;;;;;;;;;;5134190;27;20404;-77
2024/02/09 09:11:37;;;;;;;2.17;1.60;;;;;;;;;;5115607;27;21090;-80
2024/02/09 09:14:05;;;;;;;1.90;1.30;;;;;;;;;;5134066;27;20500;-78
2024/02/09 09:16:31;;;;;;;1.90;1.20;;;;;;;;;;5133747;27;20821;-79
2024/02/09 09:18:57;;;;;;;2.27;1.33;;;;;;;;;;5134081;27;20402;-77
2024/02/09 09:21:23;;;;;;;2.73;1.53;;;;;;;;;;5133948;27;20943;-78
2024/02/09 09:23:51;;;;;;;2.40;1.10;;;;;;;;;;5133823;28;20496;-77
2024/02/09 09:26:17;;;;;;;1.90;1.10;;;;;;;;;;5133924;28;20414;-79
2024/02/09 09:28:43;;;;;;;2.90;1.40;;;;;;;;;;5133907;28;20413;-79
2024/02/09 09:31:09;;;;;;;2.30;1.40;;;;;;;;;;5133499;28;20832;-78
2024/02/09 09:33:35;;;;;;;3.20;1.40;;;;;;;;;;5115540;28;20456;-78
2024/02/09 09:36:01;;;;;;;3.00;1.53;;;;;;;;;;5133926;28;20423;-78
2024/02/09 09:38:30;;;;;;;2.80;1.43;;;;;;;;;;5115390;28;20921;-78
2024/02/09 09:41:02;;;;;;;3.57;1.40;;;;;;;;;;5133508;28;20405;-77
2024/02/09 09:43:28;;;;;;;1.70;1.30;;;;;;;;;;5133829;28;20431;-78
2024/02/09 09:45:59;;;;;;;2.07;1.20;;;;;;;;;;5133787;28;20405;-81
2024/02/09 09:48:26;;;;;;;2.27;0.90;;;;;;;;;;5134480;28;20402;-77
2024/02/09 09:50:53;;;;;;;1.90;0.80;;;;;;;;;;5134018;28;20405;-78
2024/02/09 09:53:21;;;;;;;1.60;1.23;;;;;;;;;;5135689;27;20552;-80
2024/02/09 09:55:47;;;;;;;3.30;1.43;;;;;;;;;;5137938;27;20423;-78
2024/02/09 09:58:13;;;;;;;2.20;1.07;;;;;;;;;;5137931;27;20823;-78
2024/02/09 10:00:43;;;;;;;2.60;0.87;;;;;;;;;;5137288;27;20908;-82
2024/02/09 10:03:10;;;;;;;1.30;0.63;;;;;;;;;;5119512;27;20420;-80
2024/02/09 10:05:36;;;;;;;1.87;1.10;;;;;;;;;;5137666;27;20417;-79
2024/02/09 10:08:02;;;;;;;2.60;1.17;;;;;;;;;;5137718;27;20408;-78
2024/02/09 10:10:29;;;;;;;3.00;1.10;;;;;;;;;;5137587;27;20403;-80
2024/02/09 10:13:11;;;;;;;1.90;1.03;;;;;;;;;;5137400;27;20468;-78
2024/02/09 10:15:38;;;;;;;1.03;0.80;;;;;;;;;;5136207;27;20819;-78
2024/02/09 10:18:04;;;;;;;1.87;1.00;;;;;;;;;;5119365;27;20408;-78
2024/02/09 10:20:30;;;;;;;1.40;0.80;;;;;;;;;;5137475;27;20410;-78
2024/02/09 10:22:56;;;;;;;1.97;1.00;;;;;;;;;;5137466;27;20400;-77
2024/02/09 10:25:23;;;;;;;1.47;0.40;;;;;;;;;;5137552;27;20412;-78
2024/02/09 10:27:52;;;;;;;1.77;0.63;;;;;;;;;;5119555;27;20404;-78
2024/02/09 10:30:21;;;;;;;2.00;1.50;;;;;;;;;;5137479;27;20405;-79
2024/02/09 10:32:47;;;;;;;1.20;0.77;;;;;;;;;;5120059;27;20476;-84
2024/02/09 10:35:13;;;;;;;1.37;0.97;;;;;;;;;;5137660;27;20396;-81
2024/02/09 10:37:39;;;;;;;1.40;0.87;;;;;;;;;;5137963;27;20458;-85
2024/02/09 10:40:06;;;;;;;1.10;0.60;;;;;;;;;;5137598;27;20927;-82
2024/02/09 10:42:33;;;;;;;3.57;1.40;;;;;;;;;;5137561;27;20561;-88
2024/02/09 10:44:59;;;;;;;2.20;0.90;;;;;;;;;;5137053;27;20415;-79
2024/02/09 10:47:26;;;;;;;2.10;1.13;;;;;;;;;;5130281;27;20449;-85
2024/02/09 10:49:56;;;;;;;3.10;1.13;;;;;;;;;;5114375;27;20454;-85
2024/02/09 10:52:24;;;;;;;2.77;0.93;;;;;;;;;;5112209;27;20477;-84
2024/02/09 10:54:51;;;;;;;2.03;1.30;;;;;;;;;;5117424;27;20451;-85
2024/02/09 10:57:17;;;;;;;0.93;0.83;;;;;;;;;;5114569;27;20408;-83
2024/02/09 10:59:44;;;;;;;0.70;0.30;;;;;;;;;;5132275;27;20497;-84
2024/02/09 11:02:11;;;;;;;1.63;1.53;;;;;;;;;;5139610;27;20404;-81
2024/02/09 11:04:40;;;;;;;3.57;1.30;;;;;;;;;;5135920;27;20407;-86
2024/02/09 11:07:06;;;;;;;1.50;0.80;;;;;;;;;;5137796;27;20764;-81
2024/02/09 11:09:32;;;;;;;1.97;0.80;;;;;;;;;;5118150;27;20457;-80
2024/02/09 11:12:04;;;;;;;1.20;0.50;;;;;;;;;;5136392;27;20941;-81
2024/02/09 11:14:32;;;;;;;1.40;0.70;;;;;;;;;;5136181;27;20409;-79
2024/02/09 11:17:00;;;;;;;1.00;0.40;;;;;;;;;;5136334;27;20401;-81
2024/02/09 11:19:27;;;;;;;0.90;0.50;;;;;;;;;;5118943;27;20431;-82
2024/02/09 11:21:57;;;;;;;1.57;0.80;;;;;;;;;;5137674;27;20764;-83
2024/02/09 11:24:25;;;;;;;1.67;0.30;;;;;;;;;;5118082;27;20469;-82
2024/02/09 11:26:51;;;;;;;2.80;0.90;;;;;;;;;;5118650;27;20513;-82
2024/02/09 11:29:18;;;;;;;0.70;0.30;;;;;;;;;;5136674;27;20454;-81
2024/02/09 11:31:52;;;;;;;0.73;0.20;;;;;;;;;;5136687;27;20472;-83
2024/02/09 11:34:18;;;;;;;1.50;0.43;;;;;;;;;;5124973;27;20432;-80
2024/02/09 11:36:44;;;;;;;1.20;0.37;;;;;;;;;;5103319;28;20779;-81
2024/02/09 11:39:10;;;;;;;0.53;0.30;;;;;;;;;;5094245;28;20534;-80
2024/02/09 11:41:37;;;;;;;1.60;0.33;;;;;;;;;;5079879;28;20456;-79
2024/02/09 11:44:04;;;;;;;1.00;0.67;;;;;;;;;;5073713;28;20423;-80
2024/02/09 11:46:30;;;;;;;0.93;0.30;;;;;;;;;;5074039;28;20522;-79
2024/02/09 11:48:59;;;;;;;1.57;0.63;;;;;;;;;;5074071;28;20938;-80
2024/02/09 11:51:25;;;;;;;1.40;0.47;;;;;;;;;;5073852;28;20462;-80
2024/02/09 11:53:52;;;;;;;0.67;0.30;;;;;;;;;;5072518;28;20425;-80
2024/02/09 11:56:21;;;;;;;0.97;0.30;;;;;;;;;;5073758;28;20418;-81
2024/02/09 11:58:49;;;;;;;1.83;0.60;;;;;;;;;;5072074;28;20420;-81
2024/02/09 12:01:15;;;;;;;2.10;0.50;;;;;;;;;;5073390;28;20841;-81
2024/02/09 12:03:41;;;;;;;0.80;0.40;;;;;;;;;;5075712;28;20467;-81
2024/02/09 12:06:06;;;;;;;0.70;0.27;;;;;;;;;;5114180;28;20532;-80
2024/02/09 12:08:33;;;;;;;1.83;0.50;;;;;;;;;;5114315;28;20954;-80
2024/02/09 12:11:00;;;;;;;1.37;0.53;;;;;;;;;;5114167;28;20461;-81
2024/02/09 12:13:26;;;;;;;1.00;0.50;;;;;;;;;;5114007;28;20954;-81
2024/02/09 12:15:52;;;;;;;2.30;0.70;;;;;;;;;;5113793;28;20504;-81
2024/02/09 12:18:18;;;;;;;1.17;0.50;;;;;;;;;;5114450;28;20421;-80
2024/02/09 12:20:44;;;;;;;1.10;0.40;;;;;;;;;;5114738;28;20429;-81
2024/02/09 12:23:10;;;;;;;0.50;0.20;;;;;;;;;;5114696;28;20407;-82
2024/02/09 12:25:40;;;;;;;1.30;0.50;;;;;;;;;;5114340;28;20415;-80
2024/02/09 12:28:09;;;;;;;0.70;0.30;;;;;;;;;;5114117;28;20406;-81
2024/02/09 12:30:39;;;;;;;2.93;0.40;;;;;;;;;;5113530;28;20409;-81
2024/02/09 12:33:05;;;;;;;0.60;0.30;;;;;;;;;;5112347;28;20461;-79
2024/02/09 12:35:32;;;;;;;0.87;0.20;;;;;;;;;;5113798;28;20497;-79
2024/02/09 12:37:58;;;;;;;1.97;0.30;;;;;;;;;;5095478;28;20482;-81
2024/02/09 12:40:25;;;;;;;2.10;0.30;;;;;;;;;;5095107;28;20982;-80
2024/02/09 12:42:53;;;;;;;0.50;0.20;;;;;;;;;;5127500;27;20979;-80
2024/02/09 12:45:25;;;;;;;1.17;0.47;;;;;;;;;;5133953;27;20460;-79
2024/02/09 12:47:50;;;;;;;0.97;0.20;;;;;;;;;;5134306;27;20428;-79
2024/02/09 12:50:20;;;;;;;0.80;0.20;;;;;;;;;;5134430;27;20406;-80
2024/02/09 12:52:47;;;;;;;1.13;0.30;;;;;;;;;;5134455;27;20463;-81
2024/02/09 12:55:15;;;;;;;0.63;0.30;;;;;;;;;;5134366;27;20401;-79
2024/02/09 12:57:41;;;;;;;1.43;0.30;;;;;;;;;;5134425;27;20418;-79
2024/02/09 13:00:10;;;;;;;0.60;0.40;;;;;;;;;;5115592;27;20407;-79
2024/02/09 13:02:36;;;;;;;0.50;0.20;;;;;;;;;;5134348;27;20416;-81
2024/02/09 13:05:02;;;;;;;1.07;0.63;;;;;;;;;;5134304;27;20400;-78
2024/02/09 13:07:34;;;;;;;0.40;0.20;;;;;;;;;;5116012;27;20404;-80
2024/02/09 13:10:10;;;;;;;1.00;0.37;;;;;;;;;;5134318;27;20416;-81
2024/02/09 13:12:37;;;;;;;0.83;0.30;;;;;;;;;;5110139;27;20830;-82
2024/02/09 13:15:07;;;;;;;0.90;0.40;;;;;;;;;;5115227;27;20780;-81
2024/02/09 13:17:35;;;;;;;1.03;0.30;;;;;;;;;;5134085;27;20460;-81
2024/02/09 13:20:04;;;;;;;0.53;0.20;;;;;;;;;;5134858;27;20406;-80
2024/02/09 13:22:33;;;;;;;0.97;0.50;;;;;;;;;;5134933;27;20428;-85
2024/02/09 13:24:59;;;;;;;1.20;0.30;;;;;;;;;;5117217;28;20898;-81
2024/02/09 13:27:29;;;;;;;1.93;0.60;;;;;;;;;;5134481;27;20427;-82
2024/02/09 13:29:56;;;;;;;1.23;0.63;;;;;;;;;;5135965;28;20409;-82
2024/02/09 13:32:26;;;;;;;1.10;0.40;;;;;;;;;;5135705;28;20472;-84
2024/02/09 13:34:55;;;;;;;1.33;1.23;;;;;;;;;;5135714;28;20440;-82
2024/02/09 13:37:26;;;;;;;1.13;0.50;;;;;;;;;;5135839;28;20413;-82
2024/02/09 13:39:53;;;;;;;1.17;0.63;;;;;;;;;;5135395;28;20419;-83
2024/02/09 13:42:28;;;;;;;1.30;0.30;;;;;;;;;;5136601;28;20447;-81
2024/02/09 13:44:54;;;;;;;1.03;0.30;;;;;;;;;;5134494;28;20412;-81
2024/02/09 13:47:23;;;;;;;1.40;0.50;;;;;;;;;;5135458;28;20398;-81
2024/02/09 13:49:49;;;;;;;0.90;0.53;;;;;;;;;;5137508;28;20499;-82
2024/02/09 13:52:19;;;;;;;1.30;0.23;;;;;;;;;;5136554;28;20535;-81
2024/02/09 13:54:47;;;;;;;0.97;0.67;;;;;;;;;;5136137;28;20433;-82
2024/02/09 13:57:18;;;;;;;1.17;0.40;;;;;;;;;;5135337;28;20463;-82
2024/02/09 13:59:50;;;;;;;1.07;0.63;;;;;;;;;;5134962;28;20401;-81
2024/02/09 14:02:15;;;;;;;1.03;0.80;;;;;;;;;;5135292;28;20468;-79
2024/02/09 14:04:44;;;;;;;1.13;1.00;;;;;;;;;;5134133;28;20435;-79
2024/02/09 14:07:10;;;;;;;1.57;0.60;;;;;;;;;;5134021;28;20412;-81
2024/02/09 14:09:38;;;;;;;1.40;0.50;;;;;;;;;;5134215;28;20495;-79
2024/02/09 14:12:04;;;;;;;1.40;0.40;;;;;;;;;;5134327;28;20509;-80
2024/02/09 14:14:30;;;;;;;3.47;1.10;;;;;;;;;;5133980;28;20403;-81
2024/02/09 14:16:56;;;;;;;2.00;0.83;;;;;;;;;;5134246;28;20456;-80
2024/02/09 14:19:22;;;;;;;1.20;0.63;;;;;;;;;;5134031;28;20400;-83
2024/02/09 14:21:49;;;;;;;1.10;0.60;;;;;;;;;;5115541;28;20968;-83
2024/02/09 14:24:15;;;;;;;1.77;1.10;;;;;;;;;;5133831;28;20413;-81
2024/02/09 14:26:44;;;;;;;1.30;0.83;;;;;;;;;;5134027;28;20413;-81
2024/02/09 14:29:10;;;;;;;2.10;0.80;;;;;;;;;;5133758;28;20412;-81
2024/02/09 14:31:36;;;;;;;4.40;1.13;;;;;;;;;;5133855;28;20458;-82
2024/02/09 14:34:02;;;;;;;15.73;8.13;;;;;;;;;;5116272;28;20437;-82
2024/02/09 14:36:28;;;;;;;11.80;7.40;;;;;;;;;;5135738;28;20457;-82
2024/02/09 14:38:55;;;;;;;8.90;5.73;;;;;;;;;;5133894;27;20465;-83
2024/02/09 14:41:21;;;;;;;5.07;3.47;;;;;;;;;;5136821;27;20448;-80
2024/02/09 14:43:48;;;;;;;7.33;5.73;;;;;;;;;;5136914;27;20432;-85
2024/02/09 14:46:14;;;;;;;1.90;0.90;;;;;;;;;;5137093;27;20957;-80
2024/02/09 14:48:40;;;;;;;2.33;1.23;;;;;;;;;;5136975;27;20654;-81
2024/02/09 14:51:06;;;;;;;10.93;7.60;;;;;;;;;;5136893;27;20540;-83
2024/02/09 14:53:35;;;;;;;6.72;5.70;;;;;;;;;;5119513;27;20506;-80
2024/02/09 14:56:01;;;;;;;3.50;3.20;;;;;;;;;;5098328;28;20692;-81
2024/02/09 14:58:27;;;;;;;4.27;3.67;;;;;;;;;;5115944;28;20407;-79
2024/02/09 15:00:54;;;;;;;3.07;1.63;;;;;;;;;;5116415;28;20405;-82
2024/02/09 15:03:20;;;;;;;4.90;4.07;;;;;;;;;;5097934;28;20910;-80
2024/02/09 15:05:49;;;;;;;3.33;1.60;;;;;;;;;;5116580;28;20408;-78
2024/02/09 15:08:16;;;;;;;2.40;1.50;;;;;;;;;;5116334;28;20413;-79
2024/02/09 15:10:42;;;;;;;2.30;1.20;;;;;;;;;;5116102;28;20409;-80
2024/02/09 15:13:09;;;;;;;1.77;0.63;;;;;;;;;;5115986;28;20465;-80
2024/02/09 15:15:35;;;;;;;3.27;1.33;;;;;;;;;;5115794;28;20440;-80
2024/02/09 15:18:01;;;;;;;4.70;3.47;;;;;;;;;;5115984;28;20417;-78
2024/02/09 15:20:27;;;;;;;4.67;3.07;;;;;;;;;;5116113;28;20402;-78
2024/02/09 15:22:54;;;;;;;2.93;1.47;;;;;;;;;;5116036;28;20440;-83
2024/02/09 15:25:20;;;;;;;2.80;1.73;;;;;;;;;;5115844;28;20405;-80
2024/02/09 15:27:46;;;;;;;3.40;2.07;;;;;;;;;;5116007;28;20466;-79
2024/02/09 15:30:19;;;;;;;3.20;1.80;;;;;;;;;;5097101;28;20433;-79
2024/02/09 15:32:45;;;;;;;2.53;1.83;;;;;;;;;;5115838;28;21131;-79
2024/02/09 15:35:11;;;;;;;6.53;3.37;;;;;;;;;;5115842;28;20402;-79
2024/02/09 15:37:39;;;;;;;6.50;3.57;;;;;;;;;;5115875;28;20463;-83
2024/02/09 15:40:06;;;;;;;3.60;2.63;;;;;;;;;;5116035;28;20402;-83
2024/02/09 15:42:32;;;;;;;3.47;1.77;;;;;;;;;;5102193;28;20521;-84
2024/02/09 15:44:58;;;;;;;5.20;2.00;;;;;;;;;;5095380;28;20424;-80
2024/02/09 15:47:24;;;;;;;2.80;1.70;;;;;;;;;;5077166;28;20410;-80
2024/02/09 15:49:50;;;;;;;3.27;1.60;;;;;;;;;;5095246;28;20406;-82
2024/02/09 15:52:16;;;;;;;2.90;1.90;;;;;;;;;;5094957;28;20515;-85
2024/02/09 15:54:42;;;;;;;4.63;1.83;;;;;;;;;;5095195;28;20490;-80
2024/02/09 15:57:08;;;;;;;3.03;2.10;;;;;;;;;;5095632;28;20447;-84
2024/02/09 15:59:34;;;;;;;3.27;2.37;;;;;;;;;;5094759;28;20414;-79
2024/02/09 16:02:00;;;;;;;2.70;1.97;;;;;;;;;;5095182;28;20415;-81
2024/02/09 16:04:26;;;;;;;4.50;2.30;;;;;;;;;;5095373;28;20407;-84
2024/02/09 16:06:52;;;;;;;4.00;3.00;;;;;;;;;;5094923;28;20427;-84
2024/02/09 16:09:18;;;;;;;5.90;4.03;;;;;;;;;;5095186;28;20410;-83
2024/02/09 16:11:47;;;;;;;3.80;2.83;;;;;;;;;;5094755;28;20464;-81
2024/02/09 16:14:13;;;;;;;4.13;3.20;;;;;;;;;;5094753;28;20483;-79
2024/02/09 16:16:39;;;;;;;4.70;2.60;;;;;;;;;;5094942;28;20406;-84
2024/02/09 16:19:06;;;;;;;5.50;4.47;;;;;;;;;;5076668;28;20410;-83
2024/02/09 16:21:32;;;;;;;4.00;3.13;;;;;;;;;;5094982;28;20418;-84
2024/02/09 16:23:59;;;;;;;4.37;2.93;;;;;;;;;;5094494;28;20403;-83
2024/02/09 16:26:25;;;;;;;5.67;3.57;;;;;;;;;;5076488;28;20426;-85
2024/02/09 16:28:51;;;;;;;5.27;3.03;;;;;;;;;;5094118;28;20416;-83